Time;durP1;ratioP1;P1;durP2;ratioP2;P2;SDS_P1;SDS_P2;PMS_P1;PMS_P2;Temp;Humidity;BMP_temperature;BMP_pressure;BME280_temperature;BME280_humidity;BME280_pressure;Samples;Min_cycle;Max_cycle;Signal;HPM_P1;HPM_P2
2022/09/09 00:00:37;;;;;;;10.10;9.80;;;14.10;99.90;;;;;;5100472;28;20241;-80
2022/09/09 00:03:16;;;;;;;10.10;9.80;;;14.10;99.90;;;;;;5100579;28;20267;-81
2022/09/09 00:06:03;;;;;;;10.10;9.80;;;14.10;99.90;;;;;;5099785;28;20229;-81
2022/09/09 00:08:43;;;;;;;10.00;9.70;;;14.10;99.90;;;;;;5100311;28;20255;-81
2022/09/09 00:11:20;;;;;;;10.20;9.90;;;14.00;99.90;;;;;;5099709;28;20233;-81
2022/09/09 00:13:54;;;;;;;10.10;9.80;;;14.00;99.90;;;;;;5102035;28;20294;-80
2022/09/09 00:16:27;;;;;;;10.10;9.80;;;14.00;99.90;;;;;;5109714;28;20218;-80
2022/09/09 00:19:05;;;;;;;10.10;9.80;;;13.90;99.90;;;;;;5111327;28;20244;-81
2022/09/09 00:21:37;;;;;;;10.23;9.93;;;13.90;99.90;;;;;;5109558;28;20249;-81
2022/09/09 00:24:25;;;;;;;10.07;9.77;;;13.90;99.90;;;;;;5108674;28;20260;-80
2022/09/09 00:26:59;;;;;;;10.13;9.83;;;13.90;99.90;;;;;;5107693;28;20276;-80
2022/09/09 00:29:37;;;;;;;10.40;10.10;;;13.90;99.90;;;;;;5113742;28;20220;-81
2022/09/09 00:32:16;;;;;;;10.33;10.03;;;13.90;99.90;;;;;;5110140;28;20236;-80
2022/09/09 00:34:52;;;;;;;10.30;10.00;;;13.80;99.90;;;;;;5106368;28;20229;-81
2022/09/09 00:37:25;;;;;;;10.10;9.80;;;13.80;99.90;;;;;;5105233;28;20251;-81
2022/09/09 00:39:56;;;;;;;10.00;9.70;;;13.80;99.90;;;;;;5105792;28;20225;-81
2022/09/09 00:42:32;;;;;;;9.80;9.50;;;13.80;99.90;;;;;;5104696;28;20295;-81
2022/09/09 00:45:12;;;;;;;10.13;9.83;;;13.80;99.90;;;;;;5105228;28;20332;-81
2022/09/09 00:47:49;;;;;;;9.93;9.63;;;13.80;99.90;;;;;;5104373;28;20229;-81
2022/09/09 00:50:45;;;;;;;9.70;9.40;;;13.70;99.90;;;;;;5103843;28;20304;-81
2022/09/09 00:53:33;;;;;;;9.97;9.67;;;13.70;99.90;;;;;;5103696;28;20321;-81
2022/09/09 00:56:16;;;;;;;10.10;9.80;;;13.70;99.90;;;;;;5102790;28;20225;-80
2022/09/09 00:58:55;;;;;;;9.93;9.63;;;13.60;99.90;;;;;;5103727;28;20220;-81
2022/09/09 01:01:25;;;;;;;9.87;9.57;;;13.70;99.90;;;;;;5112065;28;20245;-81
2022/09/09 01:03:59;;;;;;;9.90;9.60;;;13.60;99.90;;;;;;5103957;28;20229;-81
2022/09/09 01:06:38;;;;;;;10.00;9.70;;;13.60;99.90;;;;;;5104767;28;20221;-82
2022/09/09 01:09:23;;;;;;;9.70;9.40;;;13.60;99.90;;;;;;5104501;28;20230;-81
2022/09/09 01:12:00;;;;;;;9.80;9.50;;;13.60;99.90;;;;;;5108237;28;20237;-81
2022/09/09 01:14:41;;;;;;;9.80;9.50;;;13.50;99.90;;;;;;5109565;28;20228;-81
2022/09/09 01:17:17;;;;;;;10.00;9.70;;;13.50;99.90;;;;;;5108960;28;20248;-81
2022/09/09 01:20:04;;;;;;;9.60;9.30;;;13.50;99.90;;;;;;5114328;28;20232;-81
2022/09/09 01:22:39;;;;;;;9.80;9.50;;;13.50;99.90;;;;;;5109037;28;20288;-81
2022/09/09 01:25:31;;;;;;;9.60;9.30;;;13.50;99.90;;;;;;5107887;28;20274;-81
2022/09/09 01:28:08;;;;;;;9.73;9.43;;;13.50;99.90;;;;;;5106595;28;20229;-80
2022/09/09 01:30:39;;;;;;;9.80;9.50;;;13.40;99.90;;;;;;5106577;28;20228;-80
2022/09/09 01:33:15;;;;;;;9.80;9.50;;;13.40;99.90;;;;;;5105150;28;20237;-81
2022/09/09 01:35:54;;;;;;;9.77;9.47;;;13.40;99.90;;;;;;5112836;28;20239;-81
2022/09/09 01:38:22;;;;;;;9.70;9.40;;;13.50;99.90;;;;;;5107248;28;20225;-80
2022/09/09 01:40:52;;;;;;;9.90;9.60;;;13.40;99.90;;;;;;5104501;28;20281;-82
2022/09/09 01:43:24;;;;;;;9.67;9.37;;;13.40;99.90;;;;;;5104679;28;20294;-80
2022/09/09 01:46:00;;;;;;;9.73;9.43;;;13.40;99.90;;;;;;5103786;28;20260;-79
2022/09/09 01:48:28;;;;;;;9.90;9.60;;;13.40;99.90;;;;;;5103952;28;20236;-80
2022/09/09 01:50:58;;;;;;;10.20;9.90;;;13.40;99.90;;;;;;5103834;28;20230;-82
2022/09/09 01:53:27;;;;;;;10.03;9.73;;;13.40;99.90;;;;;;5104298;28;20265;-81
2022/09/09 01:56:06;;;;;;;9.60;9.30;;;13.40;99.90;;;;;;5104354;28;20316;-81
2022/09/09 01:58:55;;;;;;;9.80;9.50;;;13.40;99.90;;;;;;5103875;28;20237;-80
2022/09/09 02:01:39;;;;;;;10.00;9.70;;;13.40;99.90;;;;;;5104305;28;20229;-81
2022/09/09 02:04:21;;;;;;;9.70;9.40;;;13.40;99.90;;;;;;5103769;28;20260;-81
2022/09/09 02:06:57;;;;;;;9.67;9.37;;;13.40;99.90;;;;;;5103579;28;20248;-81
2022/09/09 02:09:34;;;;;;;9.60;9.30;;;13.40;99.90;;;;;;5105933;28;20225;-83
2022/09/09 02:12:17;;;;;;;9.53;9.23;;;13.40;99.90;;;;;;5105385;28;20293;-82
2022/09/09 02:14:54;;;;;;;9.87;9.57;;;13.40;99.90;;;;;;5103139;28;20241;-80
2022/09/09 02:17:29;;;;;;;9.57;9.27;;;13.40;99.90;;;;;;5103881;28;20232;-80
2022/09/09 02:20:07;;;;;;;9.77;9.47;;;13.50;99.90;;;;;;5103498;28;20232;-80
2022/09/09 02:22:37;;;;;;;9.47;9.17;;;13.50;99.90;;;;;;5102878;28;20223;-80
2022/09/09 02:25:07;;;;;;;9.60;9.30;;;13.50;99.90;;;;;;5103005;28;20225;-80
2022/09/09 02:27:35;;;;;;;9.40;9.10;;;13.40;99.90;;;;;;5103194;28;20241;-80
2022/09/09 02:30:14;;;;;;;9.50;9.20;;;13.50;99.90;;;;;;5102606;28;20221;-80
2022/09/09 02:32:45;;;;;;;9.30;9.00;;;13.50;99.90;;;;;;5102093;28;20807;-80
2022/09/09 02:35:16;;;;;;;9.40;9.10;;;13.50;99.90;;;;;;5102185;28;20230;-81
2022/09/09 02:37:47;;;;;;;9.23;8.93;;;13.50;99.90;;;;;;5102891;28;20285;-82
2022/09/09 02:40:16;;;;;;;9.37;9.07;;;13.60;99.90;;;;;;5102879;28;20229;-80
2022/09/09 02:42:45;;;;;;;8.87;8.67;;;13.60;99.90;;;;;;5101764;28;20241;-80
2022/09/09 02:45:21;;;;;;;9.20;8.90;;;13.60;99.90;;;;;;5102246;28;20236;-80
2022/09/09 02:48:00;;;;;;;9.30;9.00;;;13.60;99.90;;;;;;5102884;28;20225;-80
2022/09/09 02:50:36;;;;;;;9.20;8.90;;;13.60;99.90;;;;;;5104293;28;20225;-81
2022/09/09 02:53:11;;;;;;;9.50;9.20;;;13.60;99.90;;;;;;5102455;28;20227;-80
2022/09/09 02:55:48;;;;;;;9.50;9.20;;;13.60;99.90;;;;;;5100857;28;20235;-80
2022/09/09 02:58:27;;;;;;;9.70;9.40;;;13.60;99.90;;;;;;5102204;28;20236;-80
2022/09/09 03:00:57;;;;;;;9.63;9.33;;;13.60;99.90;;;;;;5102028;28;20233;-80
2022/09/09 03:03:24;;;;;;;9.50;9.20;;;13.60;99.90;;;;;;5110565;28;20222;-80
2022/09/09 03:05:52;;;;;;;9.33;9.03;;;13.60;99.90;;;;;;5110599;28;20322;-80
2022/09/09 03:08:21;;;;;;;9.70;9.40;;;13.50;99.90;;;;;;5105049;28;20261;-80
2022/09/09 03:10:54;;;;;;;9.57;9.27;;;13.50;99.90;;;;;;5104778;28;20236;-80
2022/09/09 03:13:21;;;;;;;9.67;9.37;;;13.50;99.90;;;;;;5103717;28;20229;-80
2022/09/09 03:15:50;;;;;;;9.50;9.20;;;13.50;99.90;;;;;;5103528;28;20273;-80
2022/09/09 03:18:21;;;;;;;9.80;9.50;;;13.50;99.90;;;;;;5104024;28;20320;-80
2022/09/09 03:20:49;;;;;;;9.47;9.17;;;13.50;99.90;;;;;;5103968;28;20235;-80
2022/09/09 03:23:18;;;;;;;9.40;9.10;;;13.50;99.90;;;;;;5103411;28;20233;-80
2022/09/09 03:25:49;;;;;;;9.27;8.97;;;13.50;99.90;;;;;;5103386;28;20233;-81
2022/09/09 03:28:17;;;;;;;9.30;9.00;;;13.50;99.90;;;;;;5103851;28;20309;-80
2022/09/09 03:30:48;;;;;;;9.17;8.87;;;13.40;99.90;;;;;;5103101;28;20272;-80
2022/09/09 03:33:16;;;;;;;9.20;8.90;;;13.40;99.90;;;;;;5103224;28;20283;-80
2022/09/09 03:35:48;;;;;;;9.30;9.00;;;13.40;99.90;;;;;;5113225;28;20260;-80
2022/09/09 03:38:16;;;;;;;9.40;9.10;;;13.40;99.90;;;;;;5105766;28;20332;-81
2022/09/09 03:40:55;;;;;;;8.80;8.60;;;13.50;99.90;;;;;;5102501;28;20233;-81
2022/09/09 03:43:23;;;;;;;9.20;8.90;;;13.40;99.90;;;;;;5102638;28;20226;-79
2022/09/09 03:45:52;;;;;;;9.30;9.00;;;13.40;99.90;;;;;;5102828;28;20229;-80
2022/09/09 03:48:20;;;;;;;8.90;8.70;;;13.40;99.90;;;;;;5102902;28;20234;-79
2022/09/09 03:50:52;;;;;;;8.80;8.60;;;13.40;99.90;;;;;;5102555;28;20225;-79
2022/09/09 03:53:22;;;;;;;8.50;8.30;;;13.40;99.90;;;;;;5102887;28;20230;-80
2022/09/09 03:55:54;;;;;;;8.80;8.60;;;13.40;99.90;;;;;;5109136;28;20285;-80
2022/09/09 03:58:26;;;;;;;8.83;8.63;;;13.40;99.90;;;;;;5112725;28;20229;-79
2022/09/09 04:00:58;;;;;;;8.70;8.50;;;13.40;99.90;;;;;;5112033;28;20252;-80
2022/09/09 04:03:29;;;;;;;9.00;8.80;;;13.40;99.90;;;;;;5109131;28;20244;-80
2022/09/09 04:06:06;;;;;;;8.90;8.70;;;13.40;99.90;;;;;;5106997;28;20232;-80
2022/09/09 04:08:35;;;;;;;8.90;8.70;;;13.50;99.90;;;;;;5108552;28;20245;-80
2022/09/09 04:11:06;;;;;;;8.90;8.70;;;13.40;99.90;;;;;;5107039;28;20248;-80
2022/09/09 04:13:34;;;;;;;8.70;8.50;;;13.40;99.90;;;;;;5107519;28;20231;-79
2022/09/09 04:16:04;;;;;;;9.20;8.90;;;13.40;99.90;;;;;;5106944;28;20229;-79
2022/09/09 04:18:32;;;;;;;9.07;8.77;;;13.40;99.90;;;;;;5108786;28;20236;-81
2022/09/09 04:21:06;;;;;;;9.17;8.87;;;13.40;99.90;;;;;;5110084;28;20227;-79
2022/09/09 04:23:37;;;;;;;9.27;8.97;;;13.40;99.90;;;;;;5110997;28;20232;-79
2022/09/09 04:26:09;;;;;;;9.10;8.80;;;13.40;99.90;;;;;;5113631;28;20226;-79
2022/09/09 04:28:38;;;;;;;9.37;9.07;;;13.40;99.90;;;;;;5113972;28;20229;-80
2022/09/09 04:31:08;;;;;;;9.80;9.50;;;13.40;99.90;;;;;;5110668;28;20225;-79
2022/09/09 04:33:38;;;;;;;9.60;9.30;;;13.40;99.90;;;;;;5115986;28;20225;-79
2022/09/09 04:36:09;;;;;;;10.07;9.77;;;13.40;99.90;;;;;;5110514;28;20326;-80
2022/09/09 04:38:39;;;;;;;10.07;9.77;;;13.40;99.90;;;;;;5111570;28;20236;-79
2022/09/09 04:41:07;;;;;;;10.20;9.90;;;13.40;99.90;;;;;;5114425;28;20222;-80
2022/09/09 04:43:37;;;;;;;10.30;10.00;;;13.30;99.90;;;;;;5117614;28;20772;-79
2022/09/09 04:46:06;;;;;;;10.23;9.93;;;13.30;99.90;;;;;;5117702;28;20328;-80
2022/09/09 04:48:36;;;;;;;10.20;9.90;;;13.30;99.90;;;;;;5119285;28;20210;-80
2022/09/09 04:51:12;;;;;;;10.00;9.70;;;13.30;99.90;;;;;;5119411;28;20264;-79
2022/09/09 04:53:43;;;;;;;9.80;9.50;;;13.20;99.90;;;;;;5117120;28;20220;-79
2022/09/09 04:56:13;;;;;;;9.77;9.47;;;13.30;99.90;;;;;;5118853;28;20259;-79
2022/09/09 04:58:42;;;;;;;9.40;9.10;;;13.30;99.90;;;;;;5119678;28;20293;-80
2022/09/09 05:01:13;;;;;;;9.50;9.20;;;13.30;99.90;;;;;;5118047;28;20221;-80
2022/09/09 05:03:41;;;;;;;9.50;9.20;;;13.30;99.90;;;;;;5118405;28;20219;-80
2022/09/09 05:06:16;;;;;;;9.50;9.20;;;13.40;99.90;;;;;;5117423;28;20297;-79
2022/09/09 05:08:49;;;;;;;9.40;9.10;;;13.40;99.90;;;;;;5119566;28;20251;-79
2022/09/09 05:11:19;;;;;;;9.70;9.40;;;13.40;99.90;;;;;;5118831;28;20236;-79
2022/09/09 05:13:47;;;;;;;10.00;9.70;;;13.40;99.90;;;;;;5131502;22;20377;-83
2022/09/09 05:16:17;;;;;;;9.80;9.50;;;13.40;99.90;;;;;;5105078;28;20232;-84
2022/09/09 05:18:47;;;;;;;9.67;9.37;;;13.40;99.90;;;;;;5105366;28;20283;-84
2022/09/09 05:21:26;;;;;;;9.30;9.00;;;13.40;99.90;;;;;;5110460;28;20218;-85
2022/09/09 05:23:54;;;;;;;9.40;9.10;;;13.50;99.90;;;;;;5106540;28;20328;-84
2022/09/09 05:26:24;;;;;;;9.57;9.27;;;13.50;99.90;;;;;;5105283;28;20229;-84
2022/09/09 05:28:53;;;;;;;9.53;9.23;;;13.50;99.90;;;;;;5106023;28;20236;-83
2022/09/09 05:31:23;;;;;;;9.23;8.93;;;13.50;99.90;;;;;;5104620;28;20225;-84
2022/09/09 05:33:52;;;;;;;9.40;9.10;;;13.50;99.90;;;;;;5104554;28;20324;-84
2022/09/09 05:39:09;;;;;;;9.70;9.40;;;13.60;99.90;;;;;;5103986;28;20225;-84
2022/09/09 05:41:38;;;;;;;9.77;9.47;;;13.60;99.90;;;;;;5104565;28;20272;-84
2022/09/09 05:44:07;;;;;;;9.53;9.23;;;13.60;99.90;;;;;;5104325;28;20236;-85
2022/09/09 05:46:37;;;;;;;9.60;9.30;;;13.70;99.90;;;;;;5103680;28;20289;-85
2022/09/09 05:49:06;;;;;;;9.87;9.57;;;13.70;99.90;;;;;;5104300;28;20226;-84
2022/09/09 05:51:48;;;;;;;9.57;9.27;;;13.70;99.90;;;;;;5103647;28;20257;-85
2022/09/09 05:54:15;;;;;;;9.33;9.03;;;13.80;99.90;;;;;;5103715;28;20311;-85
2022/09/09 05:56:44;;;;;;;9.60;9.30;;;13.80;99.90;;;;;;5103364;28;20222;-85
2022/09/09 05:59:14;;;;;;;9.60;9.30;;;13.80;99.90;;;;;;5103521;28;20711;-85
2022/09/09 06:01:42;;;;;;;9.40;9.10;;;13.90;99.90;;;;;;5103204;28;20257;-84
2022/09/09 06:04:12;;;;;;;9.40;9.10;;;13.90;99.90;;;;;;5103480;28;20264;-85
2022/09/09 06:09:30;;;;;;;9.43;9.13;;;14.00;99.90;;;;;;5105582;28;20217;-82
2022/09/09 06:11:58;;;;;;;9.70;9.40;;;14.10;99.90;;;;;;5107798;28;20260;-85
2022/09/09 06:14:27;;;;;;;9.70;9.40;;;14.10;99.90;;;;;;5104815;28;20228;-85
2022/09/09 06:16:56;;;;;;;9.47;9.17;;;14.00;99.90;;;;;;5104697;28;20413;-84
2022/09/09 06:19:26;;;;;;;9.50;9.20;;;14.00;99.90;;;;;;5103435;28;20285;-85
2022/09/09 06:22:05;;;;;;;9.50;9.20;;;14.00;99.90;;;;;;5104304;28;20234;-85
2022/09/09 06:24:34;;;;;;;9.40;9.10;;;14.00;99.90;;;;;;5102918;28;20221;-85
2022/09/09 06:27:04;;;;;;;9.50;9.20;;;14.00;99.90;;;;;;5103044;28;20254;-85
2022/09/09 06:29:32;;;;;;;9.73;9.43;;;14.10;99.90;;;;;;5103545;28;20230;-84
2022/09/09 06:32:02;;;;;;;9.57;9.27;;;14.20;99.90;;;;;;5102675;28;20233;-85
2022/09/09 06:34:31;;;;;;;9.77;9.47;;;14.30;99.90;;;;;;5102637;28;20245;-85
2022/09/09 06:37:13;;;;;;;9.80;9.50;;;14.40;99.90;;;;;;5103481;28;20234;-85
2022/09/09 06:39:41;;;;;;;10.13;9.83;;;14.50;99.90;;;;;;5106688;28;20241;-83
2022/09/09 06:42:11;;;;;;;10.00;9.70;;;14.50;99.90;;;;;;5107955;28;20292;-85
2022/09/09 06:44:40;;;;;;;9.73;9.43;;;14.60;99.90;;;;;;5105187;28;20650;-84
2022/09/09 06:47:10;;;;;;;10.20;9.90;;;14.60;99.90;;;;;;5105401;28;20229;-83
2022/09/09 06:49:39;;;;;;;9.83;9.53;;;14.70;99.90;;;;;;5104517;28;20233;-83
2022/09/09 06:52:17;;;;;;;10.10;9.80;;;14.80;99.90;;;;;;5104859;28;20237;-83
2022/09/09 06:54:47;;;;;;;10.23;9.93;;;14.80;99.90;;;;;;5103401;28;20225;-83
2022/09/09 06:57:16;;;;;;;10.00;9.70;;;14.90;99.90;;;;;;5103912;28;20264;-84
2022/09/09 06:59:45;;;;;;;10.15;9.85;;;15.10;99.90;;;;;;5104360;28;20308;-84
2022/09/09 07:02:15;;;;;;;10.35;10.05;;;15.20;99.90;;;;;;5103733;28;20243;-84
2022/09/09 07:04:44;;;;;;;10.00;9.70;;;15.40;99.90;;;;;;5103227;28;20261;-84
2022/09/09 07:07:26;;;;;;;10.25;9.95;;;15.60;99.90;;;;;;5103313;28;20394;-83
2022/09/09 07:09:54;;;;;;;10.20;9.90;;;15.70;99.90;;;;;;5103678;28;20240;-84
2022/09/09 07:12:22;;;;;;;10.20;9.90;;;15.80;99.90;;;;;;5102419;28;20336;-84
2022/09/09 07:14:50;;;;;;;10.30;10.00;;;16.00;99.90;;;;;;5101205;28;20240;-84
2022/09/09 07:17:20;;;;;;;10.20;9.90;;;16.10;99.90;;;;;;5102350;28;20233;-84
2022/09/09 07:19:49;;;;;;;10.40;10.10;;;16.20;99.90;;;;;;5101766;28;20327;-84
2022/09/09 07:22:31;;;;;;;10.15;9.85;;;16.30;99.90;;;;;;5101278;28;20287;-84
2022/09/09 07:24:58;;;;;;;10.20;9.90;;;16.40;99.90;;;;;;5101891;28;20217;-84
2022/09/09 07:27:27;;;;;;;10.30;10.00;;;16.50;99.90;;;;;;5102480;28;20221;-83
2022/09/09 07:29:57;;;;;;;10.40;10.10;;;16.60;99.90;;;;;;5102205;28;20229;-83
2022/09/09 07:32:26;;;;;;;10.35;10.05;;;16.60;99.90;;;;;;5103309;28;20235;-85
2022/09/09 07:34:55;;;;;;;10.02;9.73;;;16.50;99.90;;;;;;5103451;28;20298;-84
2022/09/09 07:37:27;;;;;;;10.23;9.93;;;16.60;99.90;;;;;;5103284;28;20225;-85
2022/09/09 07:39:55;;;;;;;10.32;10.02;;;16.60;99.90;;;;;;5103974;28;20229;-84
2022/09/09 07:42:24;;;;;;;10.00;9.70;;;16.60;99.90;;;;;;5102647;28;20335;-84
2022/09/09 07:44:54;;;;;;;10.30;10.00;;;16.60;99.90;;;;;;5102582;28;20222;-84
2022/09/09 07:47:24;;;;;;;10.38;10.07;;;16.60;99.90;;;;;;5101650;28;20233;-84
2022/09/09 07:49:52;;;;;;;10.40;10.10;;;16.70;99.90;;;;;;5102612;28;20233;-84
2022/09/09 07:52:21;;;;;;;10.93;10.63;;;16.80;99.90;;;;;;5101938;28;20296;-83
2022/09/09 07:54:59;;;;;;;11.00;10.70;;;16.90;99.90;;;;;;5101725;28;20238;-84
2022/09/09 07:57:30;;;;;;;10.63;10.32;;;17.00;99.90;;;;;;5102397;28;20286;-84
2022/09/09 07:59:59;;;;;;;10.60;10.30;;;17.20;99.90;;;;;;5101874;28;20233;-84
2022/09/09 08:02:29;;;;;;;10.80;10.50;;;17.40;99.90;;;;;;5102527;28;20232;-83
2022/09/09 08:04:57;;;;;;;10.68;10.38;;;17.60;99.90;;;;;;5101302;28;20281;-83
2022/09/09 08:07:28;;;;;;;10.50;10.20;;;17.70;99.90;;;;;;5101712;28;20240;-84
2022/09/09 08:09:58;;;;;;;10.48;10.18;;;17.90;99.90;;;;;;5102523;28;20236;-84
2022/09/09 08:12:26;;;;;;;10.43;10.13;;;18.00;99.90;;;;;;5101333;28;20259;-84
2022/09/09 08:14:55;;;;;;;11.20;10.90;;;18.20;99.90;;;;;;5100801;28;20222;-83
2022/09/09 08:17:24;;;;;;;11.00;10.70;;;18.30;99.90;;;;;;5102211;28;20228;-84
2022/09/09 08:19:54;;;;;;;10.95;10.65;;;18.40;99.90;;;;;;5101766;28;20249;-84
2022/09/09 08:22:24;;;;;;;11.10;10.80;;;18.50;99.90;;;;;;5101489;28;20302;-83
2022/09/09 08:24:53;;;;;;;11.10;10.80;;;18.70;99.90;;;;;;5101191;28;20213;-84
2022/09/09 08:27:25;;;;;;;11.10;10.80;;;18.80;99.90;;;;;;5101258;28;20233;-84
2022/09/09 08:29:52;;;;;;;11.13;10.82;;;19.00;99.90;;;;;;5099886;28;20230;-84
2022/09/09 08:32:20;;;;;;;11.02;10.73;;;19.20;99.90;;;;;;5099948;28;20285;-84
2022/09/09 08:34:51;;;;;;;11.43;11.02;;;19.40;99.90;;;;;;5101860;28;20236;-84
2022/09/09 08:37:24;;;;;;;11.60;11.20;;;19.50;99.90;;;;;;5104480;28;20283;-84
2022/09/09 08:39:51;;;;;;;11.52;11.13;;;19.70;99.90;;;;;;5104673;28;20291;-83
2022/09/09 08:42:38;;;;;;;11.43;11.05;;;20.00;99.90;;;;;;5103844;28;20245;-85
2022/09/09 08:45:25;;;;;;;11.50;11.10;;;20.20;99.90;;;;;;5105232;28;20232;-84
2022/09/09 08:48:15;;;;;;;11.20;10.90;;;20.60;99.90;;;;;;5104121;28;20252;-84
2022/09/09 08:50:43;;;;;;;11.13;10.82;;;20.80;99.90;;;;;;5103364;28;20316;-84
2022/09/09 08:53:20;;;;;;;11.18;10.85;;;21.20;99.90;;;;;;5102797;28;20233;-84
2022/09/09 08:55:51;;;;;;;11.50;11.10;;;21.50;99.90;;;;;;5102226;28;20243;-85
2022/09/09 08:58:29;;;;;;;11.50;11.10;;;21.60;99.90;;;;;;5102880;28;20284;-85
2022/09/09 09:01:26;;;;;;;11.40;11.00;;;21.70;99.90;;;;;;5102748;28;20233;-84
2022/09/09 09:04:01;;;;;;;11.60;11.20;;;21.80;99.90;;;;;;5101751;28;20275;-84
2022/09/09 09:06:50;;;;;;;11.48;11.07;;;21.80;99.90;;;;;;5102249;28;20225;-84
2022/09/09 09:09:27;;;;;;;11.13;10.82;;;21.80;99.90;;;;;;5102794;28;20233;-85
2022/09/09 09:12:00;;;;;;;11.70;11.30;;;22.00;99.90;;;;;;5102322;28;20229;-85
2022/09/09 09:14:34;;;;;;;11.15;10.85;;;22.20;99.90;;;;;;5102198;28;20222;-84
2022/09/09 09:17:06;;;;;;;11.20;10.90;;;22.20;99.90;;;;;;5102513;28;20226;-84
2022/09/09 09:19:36;;;;;;;11.48;11.07;;;22.40;99.90;;;;;;5110025;28;20214;-83
2022/09/09 09:22:21;;;;;;;11.27;10.98;;;22.60;99.90;;;;;;5122260;28;20237;-82
2022/09/09 09:25:00;;;;;;;10.80;10.50;;;22.80;99.90;;;;;;5122216;28;20222;-82
2022/09/09 09:27:38;;;;;;;10.80;10.50;;;23.00;99.90;;;;;;5122337;28;20233;-82
2022/09/09 09:30:17;;;;;;;10.82;10.52;;;23.10;99.90;;;;;;5122623;28;20224;-82
2022/09/09 09:32:53;;;;;;;10.68;10.38;;;23.00;99.90;;;;;;5121878;28;20217;-82
2022/09/09 09:35:23;;;;;;;10.80;10.50;;;23.00;99.90;;;;;;5121590;28;20237;-81
2022/09/09 09:37:52;;;;;;;11.27;10.98;;;23.30;99.90;;;;;;5122395;28;20212;-82
2022/09/09 09:40:23;;;;;;;11.50;11.10;;;23.50;99.90;;;;;;5122303;28;20243;-82
2022/09/09 09:43:01;;;;;;;11.30;11.00;;;23.80;99.90;;;;;;5122160;28;20256;-83
2022/09/09 09:45:47;;;;;;;11.40;11.10;;;24.10;99.90;;;;;;5121692;28;20277;-84
2022/09/09 09:48:16;;;;;;;11.50;11.10;;;24.20;99.90;;;;;;5122016;28;20213;-83
2022/09/09 09:50:56;;;;;;;11.20;10.90;;;23.90;99.90;;;;;;5122306;28;20218;-82
2022/09/09 09:53:35;;;;;;;10.88;10.57;;;23.90;99.90;;;;;;5121558;28;20218;-82
2022/09/09 09:56:11;;;;;;;10.90;10.60;;;23.90;99.90;;;;;;5114226;28;20261;-86
2022/09/09 09:58:53;;;;;;;10.50;10.20;;;23.70;99.90;;;;;;5102156;28;20225;-85
2022/09/09 10:01:27;;;;;;;10.68;10.38;;;23.50;99.90;;;;;;5102512;28;20233;-85
2022/09/09 10:03:59;;;;;;;10.55;10.25;;;23.40;99.90;;;;;;5102844;28;20290;-85
2022/09/09 10:06:35;;;;;;;10.65;10.35;;;23.30;99.90;;;;;;5115063;28;20249;-84
2022/09/09 10:09:07;;;;;;;10.98;10.68;;;23.30;99.90;;;;;;5119682;28;20236;-83
2022/09/09 10:11:52;;;;;;;10.40;10.10;;;23.10;99.90;;;;;;5107932;28;20233;-84
2022/09/09 10:14:24;;;;;;;10.52;10.23;;;23.10;99.90;;;;;;5104309;28;20235;-85
2022/09/09 10:20:13;;;;;;;10.60;10.30;;;23.60;99.90;;;;;;5101928;28;20315;-85
2022/09/09 10:22:51;;;;;;;10.77;10.48;;;23.90;99.90;;;;;;5104990;28;20264;-85
2022/09/09 10:25:40;;;;;;;11.07;10.77;;;24.40;99.90;;;;;;5102105;28;20241;-85
2022/09/09 10:28:43;;;;;;;10.65;10.35;;;24.80;99.90;;;;;;5104295;28;20237;-85
2022/09/09 10:34:27;;;;;;;10.80;10.50;;;25.10;99.90;;;;;;5098785;28;20222;-86
2022/09/09 10:36:56;;;;;;;10.75;10.45;;;24.70;99.90;;;;;;5101457;28;20249;-85
2022/09/09 10:39:37;;;;;;;10.82;10.52;;;24.30;99.90;;;;;;5101566;28;20287;-86
2022/09/09 10:42:13;;;;;;;10.88;10.57;;;24.00;99.90;;;;;;5101435;28;20233;-86
2022/09/09 10:45:01;;;;;;;10.70;10.40;;;23.80;99.90;;;;;;5101633;28;20236;-85
2022/09/09 10:48:06;;;;;;;10.80;10.50;;;23.70;99.90;;;;;;5102202;28;20260;-85
2022/09/09 10:51:01;;;;;;;10.88;10.57;;;23.40;99.90;;;;;;5101760;28;20229;-85
2022/09/09 10:53:48;;;;;;;11.15;10.85;;;23.40;99.90;;;;;;5101274;28;20287;-86
2022/09/09 10:56:19;;;;;;;10.77;10.48;;;23.30;99.90;;;;;;5100656;28;20257;-85
2022/09/09 10:58:55;;;;;;;10.70;10.40;;;23.10;99.90;;;;;;5101478;28;20229;-85
2022/09/09 11:04:20;;;;;;;10.40;10.10;;;23.20;99.90;;;;;;5103764;28;20264;-85
2022/09/09 11:07:03;;;;;;;10.63;10.32;;;23.30;99.90;;;;;;5103847;28;20305;-85
2022/09/09 11:09:38;;;;;;;10.50;10.20;;;23.50;99.90;;;;;;5102713;28;20236;-83
2022/09/09 11:12:16;;;;;;;10.10;9.80;;;23.90;99.90;;;;;;5102861;28;20236;-85
2022/09/09 11:14:47;;;;;;;10.38;10.07;;;24.00;99.90;;;;;;5112832;22;20229;-79
2022/09/09 11:17:21;;;;;;;10.43;10.13;;;23.90;99.90;;;;;;5087144;28;20234;-81
2022/09/09 11:19:49;;;;;;;10.57;10.27;;;23.80;99.90;;;;;;5086879;28;20238;-81
2022/09/09 11:22:32;;;;;;;10.60;10.30;;;23.40;99.90;;;;;;5085565;28;20225;-80
2022/09/09 11:25:09;;;;;;;10.32;10.02;;;23.30;99.90;;;;;;5066174;28;20330;-80
2022/09/09 11:27:55;;;;;;;10.40;10.10;;;23.30;99.90;;;;;;5068397;28;20230;-78
2022/09/09 11:30:26;;;;;;;10.45;10.15;;;23.20;99.90;;;;;;5063655;28;20250;-80
2022/09/09 11:33:31;;;;;;;10.45;10.15;;;23.20;99.90;;;;;;5063388;28;20294;-80
2022/09/09 11:36:19;;;;;;;10.38;10.07;;;23.20;99.90;;;;;;5062158;28;20272;-79
2022/09/09 11:38:56;;;;;;;10.57;10.27;;;23.20;99.90;;;;;;5062817;28;20321;-80
2022/09/09 11:41:24;;;;;;;10.75;10.45;;;23.30;99.90;;;;;;5062811;28;20329;-80
2022/09/09 11:43:53;;;;;;;10.80;10.50;;;23.40;99.90;;;;;;5062662;28;20238;-80
2022/09/09 11:46:33;;;;;;;10.70;10.40;;;23.40;99.90;;;;;;5061501;28;20223;-79
2022/09/09 11:49:02;;;;;;;10.90;10.60;;;23.40;99.90;;;;;;5061654;28;20230;-79
2022/09/09 11:51:32;;;;;;;10.90;10.60;;;23.20;99.90;;;;;;5063058;28;20277;-80
2022/09/09 11:54:39;;;;;;;10.70;10.40;;;23.20;99.90;;;;;;5063186;28;20326;-80
2022/09/09 11:57:42;;;;;;;10.90;10.60;;;23.10;99.90;;;;;;5062764;28;20206;-80
2022/09/09 12:00:36;;;;;;;10.30;10.00;;;23.00;99.90;;;;;;5065063;28;20242;-81
2022/09/09 12:03:05;;;;;;;10.38;10.07;;;22.80;99.90;;;;;;5070209;28;20238;-80
2022/09/09 12:05:43;;;;;;;10.30;10.00;;;22.80;99.90;;;;;;5072700;28;20233;-81
2022/09/09 12:08:13;;;;;;;10.43;10.13;;;22.90;99.90;;;;;;5078411;28;20250;-80
2022/09/09 12:10:53;;;;;;;10.70;10.40;;;22.80;99.90;;;;;;5077817;28;21046;-79
2022/09/09 12:13:23;;;;;;;10.90;10.60;;;22.70;99.90;;;;;;5070212;28;20305;-80
2022/09/09 12:15:53;;;;;;;11.18;10.88;;;22.70;99.90;;;;;;5066433;28;20281;-80
2022/09/09 12:18:28;;;;;;;11.10;10.80;;;22.50;99.90;;;;;;5067159;28;20231;-81
2022/09/09 12:21:07;;;;;;;11.50;11.20;;;22.60;99.90;;;;;;5067634;28;20253;-79
2022/09/09 12:23:46;;;;;;;11.30;11.00;;;22.70;99.90;;;;;;5067137;28;20242;-81
2022/09/09 12:26:32;;;;;;;11.02;10.73;;;22.70;99.90;;;;;;5065816;28;20222;-80
2022/09/09 12:29:18;;;;;;;11.30;11.00;;;22.80;99.90;;;;;;5067065;28;20314;-80
2022/09/09 12:31:56;;;;;;;11.20;10.90;;;22.80;99.90;;;;;;5066481;28;20292;-81
2022/09/09 12:34:41;;;;;;;10.82;10.52;;;22.90;99.90;;;;;;5065671;28;20234;-80
2022/09/09 12:37:20;;;;;;;10.73;10.43;;;23.10;99.90;;;;;;5065330;28;20262;-80
2022/09/09 12:39:53;;;;;;;10.77;10.48;;;23.20;99.90;;;;;;5067895;28;20280;-80
2022/09/09 12:42:25;;;;;;;11.07;10.77;;;23.10;99.90;;;;;;5066208;28;20290;-81
2022/09/09 12:45:03;;;;;;;10.50;10.20;;;22.90;99.90;;;;;;5064863;28;20248;-80
2022/09/09 12:47:41;;;;;;;10.45;10.15;;;22.60;99.90;;;;;;5065464;28;20264;-78
2022/09/09 12:50:19;;;;;;;10.43;10.13;;;22.50;99.90;;;;;;5065662;28;20215;-81
2022/09/09 12:52:48;;;;;;;10.60;10.30;;;22.40;99.90;;;;;;5065715;28;20251;-81
2022/09/09 12:55:27;;;;;;;10.60;10.30;;;22.40;99.90;;;;;;5065333;28;20245;-81
2022/09/09 12:58:04;;;;;;;10.95;10.65;;;22.30;99.90;;;;;;5066156;28;20265;-81
2022/09/09 13:00:31;;;;;;;11.15;10.85;;;21.60;99.90;;;;;;5065058;28;20296;-81
2022/09/09 13:03:02;;;;;;;11.25;10.95;;;20.60;99.90;;;;;;5065545;28;20234;-80
2022/09/09 13:05:38;;;;;;;10.80;10.50;;;20.10;99.90;;;;;;5065149;28;20269;-80
2022/09/09 13:08:10;;;;;;;11.27;10.98;;;19.70;99.90;;;;;;5065149;28;20298;-80
2022/09/09 13:10:42;;;;;;;11.15;10.85;;;19.50;99.90;;;;;;5065518;28;20245;-81
2022/09/09 13:13:24;;;;;;;11.10;10.80;;;19.20;99.90;;;;;;5064021;28;20338;-81
2022/09/09 13:15:56;;;;;;;11.05;10.75;;;18.90;99.90;;;;;;5064096;28;20255;-81
2022/09/09 13:18:37;;;;;;;11.30;11.00;;;19.00;99.90;;;;;;5065105;28;20285;-80
2022/09/09 13:21:05;;;;;;;11.52;11.15;;;19.50;99.90;;;;;;5068296;28;20367;-80
2022/09/09 13:23:37;;;;;;;11.10;10.80;;;20.60;99.90;;;;;;5069990;28;20238;-80
2022/09/09 13:26:08;;;;;;;11.20;10.90;;;21.50;99.90;;;;;;5064225;28;20235;-81